CheckWX is a tool to help pilots better visualize weather data.  It is not intended as a substitute for an official pre-flight weather briefing.

01:43:10 UTC

KIAH TAF
George Bush Intercontinental / Houston Airport
Houston, Texas, USA
KIAH 212324Z 2200/2306 11008KT P6SM BKN250 FM221100 09010KT P6SM VCSH OVC080 FM221300 09010KT 6SM -SHRA OVC050 FM221600 10011KT 6SM SHRA OVC015 FM221800 12013KT 4SM SHRA BR OVC008 FM230000 14015KT 2SM SHRA BR OVC006

Jan-22@
00:00 UTC

Jan-22 @ 00:00 UTC

Jan-22@
11:00 UTC

Jan-22 @ 11:00 UTC

KIAH 212324Z 2200/2306 11008KT P6SM BKN250
Wind
  • 110° at 8 KTS
Cloud Levels
  • Broken at 25,000' AGL

Jan-22@
11:00 UTC

Jan-22 @ 11:00 UTC

Jan-22@
13:00 UTC

Jan-22 @ 13:00 UTC

FM221100 09010KT P6SM VCSH OVC080

From

From Standard forecast or significant change

Wind
  • 090° at 10 KTS
Cloud Levels
  • Overcast at 8,000' AGL

Jan-22@
13:00 UTC

Jan-22 @ 13:00 UTC

Jan-22@
16:00 UTC

Jan-22 @ 16:00 UTC

FM221300 09010KT 6SM -SHRA OVC050

From

From Standard forecast or significant change

Wind
  • 090° at 10 KTS
Conditions
Light Rain
Cloud Levels
  • Overcast at 5,000' AGL

Jan-22@
16:00 UTC

Jan-22 @ 16:00 UTC

Jan-22@
18:00 UTC

Jan-22 @ 18:00 UTC

FM221600 10011KT 6SM SHRA OVC015

From

From Standard forecast or significant change

Wind
  • 100° at 11 KTS
Conditions
Rain
Cloud Levels
  • Overcast at 1,500' AGL

Jan-22@
18:00 UTC

Jan-22 @ 18:00 UTC

Jan-23@
00:00 UTC

Jan-23 @ 00:00 UTC

FM221800 12013KT 4SM SHRA BR OVC008

From

From Standard forecast or significant change

Wind
  • 120° at 13 KTS
Conditions
Rain, Mist
Cloud Levels
  • Overcast at 800' AGL

Jan-23@
00:00 UTC

Jan-23 @ 00:00 UTC

Jan-23@
06:00 UTC

Jan-23 @ 06:00 UTC

FM230000 14015KT 2SM SHRA BR OVC006

From

From Standard forecast or significant change

Wind
  • 140° at 15 KTS
Conditions
Rain, Mist
Cloud Levels
  • Overcast at 600' AGL